Time;durP1;ratioP1;P1;durP2;ratioP2;P2;SDS_P1;SDS_P2;PMS_P1;PMS_P2;Temp;Humidity;BMP_temperature;BMP_pressure;BME280_temperature;BME280_humidity;BME280_pressure;Samples;Min_cycle;Max_cycle;Signal;HPM_P1;HPM_P2
2022/08/20 00:00:27;;;;;;;7.00;2.60;;;;;;;17.63;74.26;98794.27;105050;1271;74395;-23
2022/08/20 00:02:56;;;;;;;8.10;2.60;;;;;;;17.35;74.64;98791.46;105122;1271;63465;-23
2022/08/20 00:05:30;;;;;;;3.90;2.50;;;;;;;17.08;75.47;98791.15;104774;1271;63003;-23
2022/08/20 00:07:58;;;;;;;3.40;2.20;;;;;;;16.86;76.93;98788.13;104947;1271;76597;-23
2022/08/20 00:10:26;;;;;;;10.80;2.80;;;;;;;17.26;76.86;98785.60;104887;1271;77072;-23
2022/08/20 00:12:53;;;;;;;12.70;6.50;;;;;;;17.73;75.35;98785.75;104767;1272;74426;-23
2022/08/20 00:15:22;;;;;;;24.30;11.40;;;;;;;17.73;74.66;98788.58;104914;1271;61843;-23
2022/08/20 00:17:50;;;;;;;29.90;13.10;;;;;;;17.51;74.96;98793.33;104811;1271;62024;-23
2022/08/20 00:20:18;;;;;;;18.40;9.40;;;;;;;17.22;75.45;98788.71;104815;1271;76752;-24
2022/08/20 00:22:46;;;;;;;13.20;7.50;;;;;;;16.93;76.43;98782.27;104710;1271;77013;-23
2022/08/20 00:25:13;;;;;;;7.40;3.90;;;;;;;16.71;77.15;98784.70;104759;1274;75388;-23
2022/08/20 00:27:40;;;;;;;11.00;4.60;;;;;;;17.07;77.90;98786.73;104779;1269;61154;-23
2022/08/20 00:30:09;;;;;;;9.70;5.50;;;;;;;17.53;76.66;98791.75;104764;1271;61737;-23
2022/08/20 00:32:42;;;;;;;9.70;4.80;;;;;;;17.56;75.69;98789.26;104878;1271;76707;-23
2022/08/20 00:35:09;;;;;;;8.60;4.40;;;;;;;17.37;75.58;98792.09;104778;1271;76991;-23
2022/08/20 00:37:39;;;;;;;8.60;4.80;;;;;;;17.10;75.41;98787.92;104851;1271;73715;-23
2022/08/20 00:40:07;;;;;;;16.50;4.90;;;;;;;16.80;77.45;98789.30;104901;1271;62995;-23
2022/08/20 00:42:51;;;;;;;8.40;2.80;;;;;;;16.56;78.35;98792.30;105009;1271;63048;-23
2022/08/20 00:45:19;;;;;;;7.80;2.60;;;;;;;17.04;78.29;98789.13;103742;1272;1629221;-24
2022/08/20 00:47:46;;;;;;;5.10;2.50;;;;;;;17.53;76.24;98787.47;104764;1271;61160;-23
2022/08/20 00:50:19;;;;;;;8.80;3.40;;;;;;;17.53;75.71;98782.42;104730;1272;75432;-23
2022/08/20 00:52:48;;;;;;;6.10;4.30;;;;;;;17.29;76.25;98781.80;104774;1272;62853;-23
2022/08/20 00:55:16;;;;;;;9.90;4.60;;;;;;;17.03;76.63;98778.39;104686;1271;62852;-23
2022/08/20 00:57:53;;;;;;;11.90;4.80;;;;;;;16.79;76.96;98783.33;104750;1271;76052;-23
2022/08/20 01:00:30;;;;;;;12.10;5.30;;;;;;;16.59;77.97;98784.34;104795;1271;75936;-23
2022/08/20 01:02:59;;;;;;;17.40;8.50;;;;;;;17.06;77.41;98782.56;104761;1272;75221;-23
2022/08/20 01:05:27;;;;;;;18.10;8.70;;;;;;;17.50;74.95;98779.39;104833;1271;61809;-23
2022/08/20 01:07:56;;;;;;;16.10;7.70;;;;;;;17.44;74.35;98780.61;104774;1271;61528;-23
2022/08/20 01:10:26;;;;;;;12.80;5.00;;;;;;;17.11;74.52;98775.21;104788;1271;75321;-24
2022/08/20 01:12:55;;;;;;;8.10;4.20;;;;;;;16.71;75.54;98778.80;104863;1271;76946;-24
2022/08/20 01:15:27;;;;;;;5.70;3.30;;;;;;;16.40;76.79;98780.79;104862;1271;75518;-21
2022/08/20 01:17:58;;;;;;;3.80;2.50;;;;;;;16.14;77.47;98785.13;104748;1271;64685;-25
2022/08/20 01:20:28;;;;;;;5.20;2.50;;;;;;;16.47;77.07;98782.79;104910;1271;62062;-25
2022/08/20 01:26:09;;;;;;;6.20;3.70;;;;;;;16.92;75.58;98780.48;104820;1271;75784;-25
2022/08/20 01:28:37;;;;;;;6.30;3.70;;;;;;;16.67;75.58;98778.35;105036;1271;74251;-26
2022/08/20 01:31:09;;;;;;;4.60;3.80;;;;;;;16.41;76.22;98775.40;104919;1271;61901;-23
2022/08/20 01:33:36;;;;;;;7.20;2.30;;;;;;;16.18;77.50;98772.84;104899;1271;61790;-23
2022/08/20 01:36:04;;;;;;;5.40;2.30;;;;;;;16.50;77.93;98769.35;104782;1271;76572;-23
2022/08/20 01:38:32;;;;;;;4.00;2.90;;;;;;;16.91;76.94;98767.38;104678;1271;76719;-23
2022/08/20 01:41:24;;;;;;;7.50;3.30;;;;;;;16.90;76.57;98760.68;105048;1271;75403;-23
2022/08/20 01:43:56;;;;;;;6.30;3.10;;;;;;;16.64;77.01;98762.37;105115;1270;61932;-23
2022/08/20 01:46:27;;;;;;;4.50;3.30;;;;;;;16.38;77.60;98761.38;105063;1271;63377;-23
2022/08/20 01:48:55;;;;;;;2.50;1.90;;;;;;;16.14;79.11;98762.88;105076;1271;75548;-23
2022/08/20 01:51:24;;;;;;;8.20;3.40;;;;;;;16.50;78.80;98764.29;104865;1271;77025;-23
2022/08/20 01:53:53;;;;;;;13.60;4.90;;;;;;;16.94;77.45;98764.49;104737;1271;75541;-23
2022/08/20 01:56:22;;;;;;;21.60;9.70;;;;;;;16.96;76.69;98764.58;104666;1270;62057;-23
2022/08/20 01:58:52;;;;;;;5.80;2.90;;;;;;;16.77;76.16;98769.63;104668;1272;61855;-23
2022/08/20 02:01:29;;;;;;;3.50;2.60;;;;;;;16.45;75.50;98767.20;104745;1271;76738;-23
2022/08/20 02:04:01;;;;;;;7.40;2.60;;;;;;;16.11;76.64;98769.93;104753;1272;77093;-23
2022/08/20 02:06:33;;;;;;;5.40;2.80;;;;;;;15.85;77.72;98770.89;104759;1271;75324;-23
2022/08/20 02:09:01;;;;;;;4.40;2.50;;;;;;;16.23;77.94;98766.55;104802;1271;61979;-24
2022/08/20 02:11:28;;;;;;;6.20;2.50;;;;;;;16.65;76.92;98763.67;104971;1271;62205;-24
2022/08/20 02:13:56;;;;;;;7.00;3.40;;;;;;;16.62;77.21;98763.59;105171;1271;76521;-23
2022/08/20 02:16:29;;;;;;;5.50;3.10;;;;;;;16.35;79.40;98760.11;105017;1271;77002;-24
2022/08/20 02:19:02;;;;;;;4.00;3.20;;;;;;;16.10;79.57;98761.30;104822;1271;75102;-25
2022/08/20 02:21:30;;;;;;;5.90;2.10;;;;;;;15.87;80.62;98755.00;104629;1271;63411;-24
2022/08/20 02:23:58;;;;;;;4.10;2.60;;;;;;;16.23;80.17;98757.02;104925;1271;61963;-24
2022/08/20 02:26:25;;;;;;;6.50;3.40;;;;;;;16.68;77.95;98754.86;104864;1271;76301;-24
2022/08/20 02:28:53;;;;;;;2.90;2.60;;;;;;;16.70;77.13;98756.45;104820;1271;76119;-24
2022/08/20 02:31:21;;;;;;;6.50;3.00;;;;;;;16.50;76.28;98757.73;104774;1271;75536;-23
2022/08/20 02:33:49;;;;;;;7.80;3.40;;;;;;;16.22;76.72;98756.41;104921;1271;63098;-24
2022/08/20 02:36:36;;;;;;;4.80;3.40;;;;;;;15.92;78.07;98762.61;104846;1271;61714;-23
2022/08/20 02:39:09;;;;;;;8.40;2.40;;;;;;;15.71;78.80;98764.88;105108;1271;74575;-23
2022/08/20 02:41:36;;;;;;;;;;;;;;;16.15;78.98;98761.39;104737;1271;75759;-23
2022/08/20 02:44:04;;;;;;;6.10;3.70;;;;;;;16.62;77.48;98755.90;105056;1271;74397;-24
2022/08/20 02:46:32;;;;;;;7.90;3.50;;;;;;;16.52;78.21;98751.23;104728;1271;62055;-23
2022/08/20 02:48:59;;;;;;;4.90;3.90;;;;;;;16.37;77.92;98748.35;104791;1271;63092;-23
2022/08/20 02:51:26;;;;;;;4.80;3.20;;;;;;;16.11;78.24;98748.00;104766;1271;76331;-23
2022/08/20 02:53:56;;;;;;;6.20;3.30;;;;;;;15.86;78.62;98753.48;104754;1271;77010;-23
2022/08/20 02:56:23;;;;;;;3.00;1.90;;;;;;;15.69;78.94;98760.92;104768;1271;73048;-23
2022/08/20 02:58:50;;;;;;;8.40;2.60;;;;;;;16.10;78.18;98758.40;104822;1271;62695;-23
2022/08/20 03:01:17;;;;;;;3.40;2.40;;;;;;;16.62;76.60;98758.77;104799;1271;61999;-23
2022/08/20 03:03:45;;;;;;;7.80;3.10;;;;;;;16.65;75.78;98764.86;104940;1271;76659;-23
2022/08/20 03:06:12;;;;;;;5.90;3.10;;;;;;;16.42;75.66;98764.82;104862;1271;74916;-23
2022/08/20 03:08:39;;;;;;;4.70;3.00;;;;;;;16.13;76.97;98766.67;104911;1271;75480;-23
2022/08/20 03:11:07;;;;;;;5.20;3.40;;;;;;;15.83;77.28;98772.91;104769;1271;62825;-24
2022/08/20 03:13:34;;;;;;;3.20;2.30;;;;;;;15.57;77.40;98776.45;104772;1271;63205;-23
2022/08/20 03:16:01;;;;;;;6.00;2.20;;;;;;;15.94;78.00;98777.66;104923;1271;77032;-23
2022/08/20 03:18:32;;;;;;;9.80;4.50;;;;;;;16.41;75.64;98775.59;104958;1271;75991;-23
2022/08/20 03:20:59;;;;;;;6.50;3.30;;;;;;;16.44;74.23;98777.72;104746;1272;74285;-23
2022/08/20 03:23:26;;;;;;;8.30;3.90;;;;;;;16.23;75.10;98782.59;104885;1271;62840;-23
2022/08/20 03:25:53;;;;;;;7.80;4.00;;;;;;;16.02;75.17;98787.39;104825;1270;62748;-24
2022/08/20 03:28:20;;;;;;;7.30;3.60;;;;;;;15.84;75.60;98792.74;104830;1271;76478;-23
2022/08/20 03:30:49;;;;;;;5.30;2.40;;;;;;;15.77;76.24;98793.32;105049;1271;75976;-23
2022/08/20 03:33:16;;;;;;;6.40;4.10;;;;;;;16.34;75.97;98792.03;104814;1271;75156;-23
2022/08/20 03:35:43;;;;;;;4.60;3.30;;;;;;;17.03;74.53;98784.14;104777;1272;62095;-23
2022/08/20 03:38:12;;;;;;;7.20;3.70;;;;;;;17.30;72.90;98788.44;104966;1271;63257;-24
2022/08/20 03:40:39;;;;;;;7.00;4.10;;;;;;;17.36;73.02;98788.63;104785;1271;76575;-23
2022/08/20 03:43:07;;;;;;;8.50;4.00;;;;;;;17.37;72.27;98787.64;104851;1271;75837;-23
2022/08/20 03:45:35;;;;;;;4.30;3.40;;;;;;;17.38;71.79;98782.14;104888;1271;75524;-23
2022/08/20 03:48:03;;;;;;;4.40;3.30;;;;;;;17.39;71.83;98779.77;104838;1271;62038;-23
2022/08/20 03:50:31;;;;;;;3.40;2.50;;;;;;;17.40;71.70;98776.66;104898;1271;61817;-23
2022/08/20 03:52:58;;;;;;;4.60;2.50;;;;;;;18.04;71.37;98773.58;105194;1271;76478;-23
2022/08/20 03:55:28;;;;;;;3.80;3.10;;;;;;;18.84;69.38;98772.61;104829;1271;75914;-23
2022/08/20 03:58:01;;;;;;;5.40;3.30;;;;;;;19.20;68.15;98768.70;104771;1271;75340;-23
2022/08/20 04:00:37;;;;;;;6.60;3.20;;;;;;;19.28;67.71;98765.55;105064;1271;62840;-23
2022/08/20 04:03:07;;;;;;;6.90;3.90;;;;;;;19.35;67.40;98767.92;104861;1271;61650;-23
2022/08/20 04:05:35;;;;;;;6.10;3.90;;;;;;;19.38;67.53;98766.70;104830;1271;75516;-23
2022/08/20 04:08:02;;;;;;;7.20;3.20;;;;;;;19.34;67.17;98767.83;104926;1271;77046;-23
2022/08/20 04:10:30;;;;;;;6.50;3.90;;;;;;;19.39;67.34;98767.92;104777;1271;73328;-23
2022/08/20 04:12:57;;;;;;;4.00;2.50;;;;;;;19.48;67.36;98768.23;104766;1271;64392;-23
2022/08/20 04:15:25;;;;;;;4.50;2.80;;;;;;;19.94;67.30;98763.48;104800;1271;62883;-23
2022/08/20 04:17:52;;;;;;;4.80;3.10;;;;;;;20.47;66.68;98764.35;104946;1271;75791;-23
2022/08/20 04:20:22;;;;;;;5.30;2.60;;;;;;;20.71;65.57;98762.23;105049;1271;74935;-23
2022/08/20 04:22:50;;;;;;;6.50;2.90;;;;;;;20.63;65.64;98759.38;104988;1271;74918;-23
2022/08/20 04:25:27;;;;;;;4.80;3.00;;;;;;;20.60;65.41;98760.59;104789;1271;63192;-23
2022/08/20 04:28:00;;;;;;;4.80;3.40;;;;;;;20.46;66.04;98759.44;104791;1271;63038;-24
2022/08/20 04:30:28;;;;;;;5.40;2.70;;;;;;;20.42;66.56;98760.67;104827;1271;76267;-24
2022/08/20 04:32:55;;;;;;;4.40;3.00;;;;;;;20.48;66.36;98760.42;104738;1271;76957;-24
2022/08/20 04:35:23;;;;;;;4.20;3.20;;;;;;;20.42;66.26;98763.48;104840;1271;75155;-24
2022/08/20 04:37:58;;;;;;;5.50;2.20;;;;;;;20.40;66.77;98762.75;104849;1271;64715;-24
2022/08/20 04:43:12;;;;;;;5.30;2.20;;;;;;;21.93;64.02;98761.09;104807;1271;75970;-24
2022/08/20 04:45:39;;;;;;;3.20;2.40;;;;;;;22.16;63.20;98757.50;104836;1271;76793;-24
2022/08/20 04:48:06;;;;;;;5.00;3.00;;;;;;;22.29;62.84;98758.86;105109;1271;75239;-24
2022/08/20 04:50:41;;;;;;;5.50;2.80;;;;;;;22.34;62.14;98766.19;105114;1271;61994;-24
2022/08/20 04:53:10;;;;;;;4.10;2.80;;;;;;;22.34;62.46;98769.73;104797;1272;62984;-24
2022/08/20 04:55:40;;;;;;;17.10;8.80;;;;;;;21.88;61.57;98771.95;104731;1271;74795;-24
2022/08/20 04:58:09;;;;;;;22.40;13.60;;;;;;;21.23;64.14;98773.33;104845;1271;77060;-24
2022/08/20 05:00:37;;;;;;;41.60;22.00;;;;;;;20.60;66.47;98778.05;104811;1271;75331;-25
2022/08/20 05:03:07;;;;;;;20.00;11.20;;;;;;;19.93;68.88;98780.30;104803;1271;62007;-26
2022/08/20 05:05:34;;;;;;;38.50;21.80;;;;;;;19.69;70.22;98777.96;104790;1271;62796;-24
2022/08/20 05:08:03;;;;;;;13.40;10.30;;;;;;;18.62;73.54;98771.33;104826;1271;75261;-24
2022/08/20 05:10:41;;;;;;;5.90;4.20;;;;;;;18.16;75.80;98775.17;104930;1271;75904;-24
2022/08/20 05:13:08;;;;;;;9.00;4.60;;;;;;;17.99;75.96;98779.62;105315;1271;74377;-25
2022/08/20 05:15:37;;;;;;;10.60;9.20;;;;;;;17.89;76.57;98778.28;105142;1271;63666;-25
2022/08/20 05:18:06;;;;;;;16.50;13.60;;;;;;;18.06;75.41;98777.77;104971;1271;62336;-33
2022/08/20 05:20:37;;;;;;;12.40;8.60;;;;;;;18.66;74.11;98774.89;105020;1271;75606;-23
2022/08/20 05:23:06;;;;;;;14.10;11.50;;;;;;;19.32;70.81;98774.39;104860;1271;75093;-23
2022/08/20 05:25:33;;;;;;;25.50;19.60;;;;;;;19.17;71.47;98775.98;104793;1271;75387;-23
2022/08/20 05:28:08;;;;;;;9.60;6.20;;;;;;;18.39;74.24;98775.80;104760;1271;62454;-23
2022/08/20 05:30:36;;;;;;;29.70;22.20;;;;;;;18.40;75.35;98774.14;104885;1271;62788;-23
2022/08/20 05:33:04;;;;;;;13.50;9.90;;;;;;;19.10;73.05;98776.56;105079;1271;76803;-23
2022/08/20 05:35:33;;;;;;;9.80;7.40;;;;;;;19.53;70.80;98780.99;105059;1271;75590;-23
2022/08/20 05:38:01;;;;;;;13.50;7.10;;;;;;;19.88;69.58;98787.79;105106;1271;75399;-23
2022/08/20 05:40:27;;;;;;;12.50;8.40;;;;;;;19.97;69.59;98784.10;104924;1271;61967;-23
2022/08/20 05:42:55;;;;;;;32.70;13.50;;;;;;;20.45;67.30;98781.23;104867;1271;61977;-23
2022/08/20 05:45:22;;;;;;;7.60;5.40;;;;;;;20.33;67.76;98777.02;104936;1270;75974;-23
2022/08/20 05:47:49;;;;;;;5.30;4.00;;;;;;;20.40;68.38;98775.67;104855;1271;75929;-23
2022/08/20 05:50:22;;;;;;;6.10;5.00;;;;;;;20.22;68.80;98778.35;104862;1271;73333;-22
2022/08/20 05:52:49;;;;;;;7.20;4.50;;;;;;;20.22;68.19;98783.26;104761;1271;61705;-23
2022/08/20 05:55:16;;;;;;;6.80;3.20;;;;;;;20.76;66.78;98778.52;105030;1271;63072;-23
2022/08/20 05:57:44;;;;;;;6.60;3.30;;;;;;;21.03;65.46;98775.52;105152;1271;76596;-23
2022/08/20 06:00:12;;;;;;;3.80;3.40;;;;;;;21.19;65.36;98771.41;104960;1271;76916;-23
2022/08/20 06:05:28;;;;;;;3.80;2.80;;;;;;;21.37;64.19;98769.77;104579;1271;61968;-26
2022/08/20 06:07:55;;;;;;;4.00;2.80;;;;;;;21.36;64.57;98765.48;104860;1271;61501;-24
2022/08/20 06:10:34;;;;;;;5.60;2.60;;;;;;;21.35;64.87;98767.00;105134;1271;74232;-25
2022/08/20 06:13:01;;;;;;;3.30;2.30;;;;;;;21.33;64.44;98762.91;105072;1271;76764;-23
2022/08/20 06:15:30;;;;;;;3.60;2.50;;;;;;;21.34;64.43;98765.84;104963;1271;74142;-23
2022/08/20 06:17:57;;;;;;;2.80;2.00;;;;;;;21.44;64.98;98766.71;104987;1271;63395;-23
2022/08/20 06:20:24;;;;;;;2.20;1.60;;;;;;;22.08;63.53;98760.86;105071;1271;63012;-23
2022/08/20 06:22:52;;;;;;;2.90;2.30;;;;;;;22.75;60.86;98755.63;104995;1270;76527;-23
2022/08/20 06:25:19;;;;;;;4.80;1.70;;;;;;;23.09;60.45;98759.20;105135;1271;75934;-24
2022/08/20 06:27:46;;;;;;;3.70;2.10;;;;;;;23.21;60.10;98756.64;105064;1271;73188;-24
2022/08/20 06:30:14;;;;;;;4.00;1.80;;;;;;;23.24;59.91;98752.64;105129;1271;63159;-24
2022/08/20 06:32:41;;;;;;;3.40;1.90;;;;;;;23.20;59.56;98753.58;104893;1271;62373;-22
2022/08/20 06:35:08;;;;;;;3.50;1.90;;;;;;;23.29;58.65;98748.73;104806;1271;76843;-23
2022/08/20 06:37:37;;;;;;;3.10;1.90;;;;;;;23.25;58.52;98746.91;104698;1271;76917;-23
2022/08/20 06:40:13;;;;;;;2.50;2.30;;;;;;;23.32;58.63;98741.14;104833;1271;74363;-23
2022/08/20 06:42:42;;;;;;;3.60;2.20;;;;;;;23.17;58.51;98735.38;105124;1270;63057;-23
2022/08/20 06:45:17;;;;;;;3.20;2.00;;;;;;;23.23;58.68;98737.39;105044;1271;63022;-23
2022/08/20 06:47:45;;;;;;;3.60;2.30;;;;;;;23.20;58.39;98734.27;104820;1271;75433;-24
2022/08/20 06:50:15;;;;;;;2.70;2.40;;;;;;;23.21;58.46;98731.85;105018;1271;75789;-23
2022/08/20 06:52:43;;;;;;;5.50;3.30;;;;;;;23.28;58.38;98734.09;104940;1271;73339;-23
2022/08/20 06:55:19;;;;;;;6.20;2.60;;;;;;;23.36;58.38;98733.03;105070;1271;61761;-23
2022/08/20 06:57:47;;;;;;;3.10;2.10;;;;;;;23.45;58.17;98737.14;104917;1271;61871;-23
2022/08/20 07:00:17;;;;;;;3.60;2.20;;;;;;;23.62;58.35;98736.06;104947;1271;76023;-23
2022/08/20 07:02:45;;;;;;;4.60;1.90;;;;;;;23.76;57.27;98738.00;105126;1271;76786;-23
2022/08/20 07:05:12;;;;;;;4.40;1.90;;;;;;;23.59;56.81;98732.46;105146;1271;74878;-23
2022/08/20 07:07:43;;;;;;;2.20;1.80;;;;;;;23.55;57.30;98730.08;105236;1271;61115;-23
2022/08/20 07:10:11;;;;;;;3.40;2.40;;;;;;;23.46;58.61;98731.10;105142;1271;61682;-23
2022/08/20 07:12:38;;;;;;;4.80;2.20;;;;;;;23.30;58.06;98732.35;104848;1271;76284;-23
2022/08/20 07:15:07;;;;;;;5.40;2.50;;;;;;;23.07;59.07;98732.95;105116;1271;75945;-23
2022/08/20 07:17:35;;;;;;;2.40;2.00;;;;;;;22.95;58.91;98732.54;105126;1271;75362;-24
2022/08/20 07:20:11;;;;;;;4.80;2.30;;;;;;;23.00;59.65;98731.23;105221;1271;62855;-24
2022/08/20 07:22:39;;;;;;;4.70;2.40;;;;;;;23.23;58.58;98727.59;105155;1271;61603;-24
2022/08/20 07:25:09;;;;;;;7.20;2.80;;;;;;;23.31;57.09;98727.46;104898;1271;76498;-24
2022/08/20 07:27:36;;;;;;;4.00;2.80;;;;;;;23.25;57.85;98725.09;104773;1272;76816;-24
2022/08/20 07:32:53;;;;;;;6.50;2.20;;;;;;;23.40;56.08;98718.72;104806;1271;63240;-24
2022/08/20 07:35:20;;;;;;;5.40;2.80;;;;;;;23.72;55.87;98718.25;104949;1271;62192;-24
2022/08/20 07:37:48;;;;;;;4.00;2.80;;;;;;;24.00;55.56;98718.67;105030;1271;75852;-25
2022/08/20 07:40:19;;;;;;;6.30;2.70;;;;;;;24.31;54.52;98716.09;105089;1271;75378;-24
2022/08/20 07:42:56;;;;;;;5.20;2.60;;;;;;;24.64;53.34;98716.95;105145;1271;73137;-24
2022/08/20 07:45:24;;;;;;;5.80;2.10;;;;;;;24.65;52.03;98716.65;104898;1271;62050;-24
2022/08/20 07:47:52;;;;;;;3.60;2.40;;;;;;;24.67;53.07;98719.77;105159;1270;62108;-24
2022/08/20 07:50:21;;;;;;;3.60;1.90;;;;;;;24.96;53.72;98718.48;104997;1270;76581;-24
2022/08/20 07:52:51;;;;;;;4.30;2.30;;;;;;;25.03;52.70;98716.27;105045;1271;75970;-22
2022/08/20 07:55:19;;;;;;;3.50;2.10;;;;;;;25.18;51.48;98714.17;105144;1271;75580;-24
2022/08/20 07:57:48;;;;;;;10.70;6.50;;;;;;;25.06;51.18;98713.44;105135;1271;62055;-24
2022/08/20 08:00:17;;;;;;;5.70;3.30;;;;;;;24.45;51.81;98711.98;104846;1271;61153;-24
2022/08/20 08:02:45;;;;;;;3.00;2.20;;;;;;;24.59;51.84;98708.73;104822;1271;75760;-24
2022/08/20 08:05:12;;;;;;;5.20;2.50;;;;;;;24.67;53.03;98706.54;104913;1269;76950;-23
2022/08/20 08:07:40;;;;;;;3.20;1.80;;;;;;;24.94;50.69;98707.74;105129;1271;74394;-23
2022/08/20 08:10:11;;;;;;;2.40;1.80;;;;;;;25.51;50.71;98703.46;105157;1271;62007;-23
2022/08/20 08:12:44;;;;;;;20.20;13.00;;;;;;;25.38;49.73;98699.67;104960;1269;63196;-23
2022/08/20 08:15:14;;;;;;;2.60;2.00;;;;;;;25.35;50.61;98697.42;104928;1271;76627;-23
2022/08/20 08:17:43;;;;;;;3.50;1.50;;;;;;;24.87;50.52;98694.43;104979;1271;76751;-23
2022/08/20 08:20:11;;;;;;;5.00;2.30;;;;;;;24.78;50.12;98695.34;104885;1271;75272;-23
2022/08/20 08:22:41;;;;;;;4.70;1.70;;;;;;;25.07;50.54;98691.84;104823;1271;61787;-23
2022/08/20 08:25:11;;;;;;;3.50;1.70;;;;;;;25.80;49.73;98697.83;105024;1271;62078;-23
2022/08/20 08:27:39;;;;;;;9.20;1.60;;;;;;;26.07;49.84;98701.48;104807;1271;75540;-23
2022/08/20 08:30:07;;;;;;;1.80;1.40;;;;;;;25.75;50.03;98702.45;105042;1271;75691;-23
2022/08/20 08:32:35;;;;;;;4.10;1.70;;;;;;;25.67;51.05;98704.25;104781;1272;75483;-23
2022/08/20 08:35:07;;;;;;;3.10;1.50;;;;;;;25.75;50.70;98703.63;104793;1271;61914;-23
2022/08/20 08:37:36;;;;;;;3.60;1.90;;;;;;;25.50;50.94;98705.52;104900;1271;62832;-23
2022/08/20 08:40:04;;;;;;;3.00;1.40;;;;;;;25.49;50.44;98701.40;104929;1271;75804;-23
2022/08/20 08:42:40;;;;;;;7.20;2.40;;;;;;;25.69;51.13;98693.84;105151;1271;77067;-23
2022/08/20 08:45:09;;;;;;;13.30;3.10;;;;;;;25.79;49.66;98697.93;104979;1271;75625;-23
2022/08/20 08:47:37;;;;;;;5.30;2.00;;;;;;;25.71;49.14;98692.45;105161;1271;61138;-23
2022/08/20 08:50:06;;;;;;;26.90;9.90;;;;;;;26.01;47.44;98690.30;104856;1271;62938;-23
2022/08/20 08:52:35;;;;;;;18.30;9.70;;;;;;;24.75;49.32;98688.00;104969;1271;76973;-23
2022/08/20 08:55:04;;;;;;;11.40;4.60;;;;;;;25.02;50.42;98688.86;104991;1271;76942;-24
2022/08/20 08:57:31;;;;;;;2.90;2.00;;;;;;;25.16;49.77;98688.50;104689;1271;75263;-23
2022/08/20 09:00:13;;;;;;;4.00;2.20;;;;;;;25.37;49.57;98691.88;105104;1271;63301;-23
2022/08/20 09:02:41;;;;;;;3.90;1.60;;;;;;;25.12;48.46;98690.59;105106;1271;63282;-23
2022/08/20 09:05:14;;;;;;;5.70;1.80;;;;;;;25.96;46.99;98691.33;104856;1271;75604;-23
2022/08/20 09:07:44;;;;;;;3.50;1.90;;;;;;;26.55;45.85;98683.79;105157;1271;77203;-23
2022/08/20 09:10:11;;;;;;;7.00;1.90;;;;;;;26.91;45.68;98680.06;104945;1271;75440;-23
2022/08/20 09:12:39;;;;;;;5.30;2.40;;;;;;;27.05;45.68;98680.18;105251;1271;62804;-23
2022/08/20 09:15:11;;;;;;;2.80;1.90;;;;;;;27.03;44.79;98680.48;105193;1271;63047;-23
2022/08/20 09:17:40;;;;;;;3.40;2.00;;;;;;;27.37;45.10;98682.82;105012;1271;76248;-23
2022/08/20 09:20:09;;;;;;;7.60;2.70;;;;;;;27.78;44.53;98682.45;104954;1271;76424;-23
2022/08/20 09:22:36;;;;;;;5.40;2.10;;;;;;;27.39;44.02;98688.23;105085;1271;75188;-23
2022/08/20 09:25:04;;;;;;;15.70;9.70;;;;;;;27.47;44.72;98690.09;104766;1271;61687;-23
2022/08/20 09:27:31;;;;;;;31.60;15.00;;;;;;;26.86;46.22;98685.05;104800;1271;63272;-23
2022/08/20 09:29:58;;;;;;;9.40;5.40;;;;;;;26.72;47.23;98684.54;104934;1271;76564;-23
2022/08/20 09:32:26;;;;;;;4.50;2.80;;;;;;;26.60;47.12;98685.92;105118;1271;76985;-23
2022/08/20 09:34:58;;;;;;;5.90;2.80;;;;;;;26.84;47.55;98686.02;105081;1271;74336;-23
2022/08/20 09:37:27;;;;;;;9.50;5.10;;;;;;;25.99;49.31;98689.50;105246;1270;62931;-23
2022/08/20 09:40:01;;;;;;;6.40;3.50;;;;;;;25.74;49.82;98690.84;105090;1271;61674;-23
2022/08/20 09:42:31;;;;;;;7.50;4.00;;;;;;;25.59;48.89;98688.80;105110;1271;76499;-23
2022/08/20 09:45:01;;;;;;;12.80;5.20;;;;;;;25.85;49.08;98687.41;104798;1272;76957;-24
2022/08/20 09:47:28;;;;;;;5.80;2.00;;;;;;;26.10;48.64;98690.29;105136;1271;74273;-23
2022/08/20 09:49:55;;;;;;;5.30;2.70;;;;;;;25.88;48.07;98689.61;105251;1270;61775;-23
2022/08/20 09:52:31;;;;;;;5.60;2.60;;;;;;;26.00;47.27;98691.83;105345;1271;61965;-23
2022/08/20 09:55:01;;;;;;;3.90;2.60;;;;;;;26.28;46.16;98690.60;105118;1271;75438;-23
2022/08/20 09:57:29;;;;;;;5.60;5.10;;;;;;;26.65;46.16;98687.08;105052;1269;75190;-24
2022/08/20 10:00:03;;;;;;;13.50;10.40;;;;;;;27.02;45.29;98692.80;105241;1271;75421;-23
2022/08/20 10:02:38;;;;;;;4.80;3.50;;;;;;;26.72;46.22;98691.04;104781;1271;61075;-23
2022/08/20 10:05:05;;;;;;;5.30;2.40;;;;;;;26.24;47.41;98692.02;105135;1271;61965;-23
2022/08/20 10:07:36;;;;;;;5.40;2.00;;;;;;;26.19;49.96;98693.58;105137;1271;75441;-23
2022/08/20 10:10:05;;;;;;;9.60;4.00;;;;;;;26.11;50.35;98697.02;105166;1271;76740;-24
2022/08/20 10:12:32;;;;;;;6.00;2.20;;;;;;;26.22;50.10;98689.41;105132;1271;74161;-23
2022/08/20 10:14:59;;;;;;;7.90;4.10;;;;;;;26.13;50.62;98686.98;105094;1271;61887;-23
2022/08/20 10:17:26;;;;;;;7.40;4.30;;;;;;;26.21;50.53;98680.17;105053;1271;62976;-23
2022/08/20 10:19:53;;;;;;;6.40;4.50;;;;;;;26.35;49.95;98682.05;104722;1271;76516;-23
2022/08/20 10:22:20;;;;;;;4.20;2.80;;;;;;;26.21;49.44;98678.55;104982;1271;75928;-25
2022/08/20 10:24:48;;;;;;;2.40;2.20;;;;;;;26.46;47.44;98677.86;105120;1270;74082;-23
2022/08/20 10:27:15;;;;;;;11.60;8.90;;;;;;;26.40;47.70;98679.48;104903;1271;63095;-24
2022/08/20 10:29:42;;;;;;;4.10;2.60;;;;;;;24.93;51.51;98680.64;104869;1271;62670;-23
2022/08/20 10:32:14;;;;;;;15.60;8.50;;;;;;;24.11;54.62;98683.15;105112;1271;75687;-23
2022/08/20 10:34:42;;;;;;;5.50;2.60;;;;;;;24.07;55.50;98685.06;105030;1269;75973;-23
2022/08/20 10:37:13;;;;;;;19.30;13.20;;;;;;;24.04;55.73;98685.08;105025;1271;75733;-23
2022/08/20 10:39:40;;;;;;;30.60;17.60;;;;;;;23.78;56.86;98684.57;105081;1271;63083;-23
2022/08/20 10:42:07;;;;;;;9.60;6.90;;;;;;;23.83;57.11;98688.77;105181;1271;62927;-23
2022/08/20 10:44:34;;;;;;;10.30;7.10;;;;;;;24.01;56.44;98685.32;105118;1271;76565;-23
2022/08/20 10:47:15;;;;;;;23.60;16.20;;;;;;;23.73;56.43;98685.81;105191;1271;75932;-23
2022/08/20 10:49:42;;;;;;;13.20;8.00;;;;;;;23.53;56.55;98686.77;105077;1271;74117;-23
2022/08/20 10:52:09;;;;;;;11.90;8.00;;;;;;;23.61;57.38;98686.33;105034;1271;62142;-23
2022/08/20 10:54:40;;;;;;;27.30;17.50;;;;;;;23.64;56.61;98683.84;104800;1271;63345;-23
2022/08/20 10:57:21;;;;;;;60.50;37.00;;;;;;;23.81;56.72;98685.15;105101;1271;76573;-23
2022/08/20 10:59:49;;;;;;;10.30;6.90;;;;;;;23.74;56.21;98685.25;104998;1271;76249;-23
2022/08/20 11:02:18;;;;;;;25.00;8.90;;;;;;;23.55;56.40;98686.59;104795;1271;75493;-23
2022/08/20 11:04:46;;;;;;;7.60;4.40;;;;;;;24.02;56.17;98686.17;105134;1271;61864;-24
2022/08/20 11:07:23;;;;;;;10.00;4.80;;;;;;;23.61;56.09;98688.21;105136;1271;61928;-23
2022/08/20 11:10:10;;;;;;;8.20;4.90;;;;;;;24.08;55.80;98688.96;105107;1271;75443;-23
2022/08/20 11:12:39;;;;;;;12.20;6.20;;;;;;;23.97;55.85;98685.04;105154;1271;75770;-23
2022/08/20 11:15:12;;;;;;;5.70;3.10;;;;;;;24.29;54.93;98683.08;104796;1272;75414;-23
2022/08/20 11:17:41;;;;;;;8.40;2.70;;;;;;;24.95;53.27;98679.16;104801;1271;61991;-23
2022/08/20 11:20:09;;;;;;;3.90;3.50;;;;;;;25.32;52.49;98672.48;104657;1272;63248;-23
2022/08/20 11:22:36;;;;;;;4.90;2.80;;;;;;;24.94;52.34;98669.92;105028;1271;76592;-23
2022/08/20 11:25:04;;;;;;;3.60;2.60;;;;;;;25.24;52.36;98670.03;105119;1271;76631;-23
2022/08/20 11:27:33;;;;;;;8.70;5.60;;;;;;;25.07;50.92;98663.90;105129;1271;75407;-23
2022/08/20 11:30:01;;;;;;;5.50;2.70;;;;;;;25.15;50.50;98660.41;105031;1271;63535;-24
2022/08/20 11:32:28;;;;;;;10.40;7.50;;;;;;;25.07;51.07;98655.30;105148;1270;62756;-24
2022/08/20 11:34:55;;;;;;;7.30;6.60;;;;;;;24.96;52.23;98655.00;105046;1271;76318;-24
2022/08/20 11:37:23;;;;;;;4.70;3.40;;;;;;;25.43;49.55;98657.17;105081;1271;75910;-24
2022/08/20 11:39:50;;;;;;;5.20;2.90;;;;;;;25.84;49.85;98654.10;105093;1271;75653;-24
2022/08/20 11:42:17;;;;;;;7.70;5.30;;;;;;;26.22;49.62;98654.14;105183;1271;62107;-23
2022/08/20 11:44:44;;;;;;;8.20;3.70;;;;;;;26.22;50.49;98652.02;104965;1271;63031;-24